Time;durP1;ratioP1;P1;durP2;ratioP2;P2;SDS_P1;SDS_P2;PMS_P1;PMS_P2;Temp;Humidity;BMP_temperature;BMP_pressure;BME280_temperature;BME280_humidity;BME280_pressure;Samples;Min_cycle;Max_cycle;Signal;HPM_P1;HPM_P2
2022/05/22 00:02:15;;;;;;;2.60;1.70;;;11.60;99.90;;;;;;5032551;28;20251;-76
2022/05/22 00:04:40;;;;;;;3.97;1.77;;;11.50;99.90;;;;;;5032922;28;20181;-76
2022/05/22 00:07:06;;;;;;;3.00;2.70;;;11.50;99.90;;;;;;5032844;28;20174;-76
2022/05/22 00:09:32;;;;;;;4.60;2.47;;;11.50;99.90;;;;;;5031267;28;20301;-76
2022/05/22 00:11:58;;;;;;;2.20;2.00;;;11.50;99.90;;;;;;5032541;28;20213;-76
2022/05/22 00:14:25;;;;;;;5.03;2.20;;;11.50;99.90;;;;;;5032581;28;20917;-76
2022/05/22 00:16:51;;;;;;;3.17;1.97;;;11.50;99.90;;;;;;5033035;28;20601;-76
2022/05/22 00:19:20;;;;;;;2.57;2.10;;;11.50;99.90;;;;;;5033375;28;20788;-77
2022/05/22 00:21:47;;;;;;;3.07;2.40;;;11.50;99.90;;;;;;5033786;28;20468;-77
2022/05/22 00:24:15;;;;;;;2.87;2.00;;;11.50;99.90;;;;;;5034200;28;20830;-77
2022/05/22 00:26:41;;;;;;;3.60;2.60;;;11.50;99.90;;;;;;5033043;28;20439;-77
2022/05/22 00:29:07;;;;;;;4.13;2.50;;;11.40;99.90;;;;;;5032285;28;20417;-76
2022/05/22 00:31:33;;;;;;;9.00;2.03;;;11.40;99.90;;;;;;5031459;28;20938;-77
2022/05/22 00:33:59;;;;;;;2.50;2.20;;;11.40;99.90;;;;;;5032459;28;20404;-76
2022/05/22 00:36:25;;;;;;;4.43;2.40;;;11.30;99.90;;;;;;5032070;28;20413;-77
2022/05/22 00:38:51;;;;;;;2.97;2.20;;;11.30;99.90;;;;;;5032535;28;20647;-77
2022/05/22 00:41:18;;;;;;;5.83;2.23;;;11.20;99.90;;;;;;5031713;28;20429;-76
2022/05/22 00:43:49;;;;;;;3.83;2.20;;;11.20;99.90;;;;;;5032220;28;20655;-77
2022/05/22 00:46:16;;;;;;;5.23;2.30;;;11.20;99.90;;;;;;5032282;28;20514;-77
2022/05/22 00:48:44;;;;;;;2.07;1.97;;;11.10;99.90;;;;;;5031900;28;20474;-77
2022/05/22 00:51:17;;;;;;;4.03;1.53;;;11.10;99.90;;;;;;5031736;28;20546;-77
2022/05/22 00:53:48;;;;;;;3.57;1.90;;;11.10;99.90;;;;;;5031594;28;20964;-76
2022/05/22 00:56:18;;;;;;;2.57;1.83;;;11.10;99.90;;;;;;5031890;28;20492;-77
2022/05/22 00:58:44;;;;;;;4.50;2.07;;;11.10;99.90;;;;;;5031741;28;20420;-77
2022/05/22 02:31:47;;;;;;;2.23;2.03;;;10.30;99.90;;;;;;5591067;23;20528;-76
2022/05/22 02:34:12;;;;;;;7.70;2.43;;;10.30;99.90;;;;;;5020940;28;20476;-76
2022/05/22 02:36:38;;;;;;;2.90;2.47;;;10.30;99.90;;;;;;5030383;28;20718;-78
2022/05/22 02:39:04;;;;;;;2.33;2.13;;;10.30;99.90;;;;;;5028862;28;20193;-77
2022/05/22 02:41:29;;;;;;;2.97;2.77;;;10.40;99.90;;;;;;5030176;28;20197;-77
2022/05/22 02:43:55;;;;;;;3.27;2.70;;;10.50;99.90;;;;;;5029694;28;20611;-77
2022/05/22 02:46:21;;;;;;;3.73;2.77;;;10.50;99.90;;;;;;5028161;28;20191;-77
2022/05/22 02:48:47;;;;;;;5.87;2.60;;;10.50;99.90;;;;;;5029447;28;20189;-77
2022/05/22 02:51:15;;;;;;;2.57;2.33;;;10.50;99.90;;;;;;5025660;28;20821;-77
2022/05/22 02:53:41;;;;;;;4.63;2.67;;;10.50;99.90;;;;;;5032039;28;20172;-78
2022/05/22 02:56:13;;;;;;;4.43;2.43;;;10.50;99.90;;;;;;5031290;28;20887;-77
2022/05/22 02:58:38;;;;;;;3.00;2.30;;;10.50;99.90;;;;;;5033942;28;20271;-77
2022/05/22 03:01:04;;;;;;;2.53;2.33;;;10.60;99.90;;;;;;5031803;28;20540;-77
2022/05/22 03:03:31;;;;;;;2.83;2.30;;;10.60;99.90;;;;;;5031876;28;20199;-77
2022/05/22 03:08:41;;;;;;;1.67;1.57;;;10.50;99.90;;;;;;5014104;28;20463;-77
2022/05/22 03:11:06;;;;;;;3.90;2.40;;;10.40;99.90;;;;;;5013593;28;20453;-77
2022/05/22 03:13:32;;;;;;;2.10;1.87;;;10.40;99.90;;;;;;5028606;28;20673;-77
2022/05/22 03:15:58;;;;;;;1.87;1.77;;;10.40;99.90;;;;;;5032898;28;20604;-78
2022/05/22 03:18:24;;;;;;;2.10;2.00;;;10.30;99.90;;;;;;5032578;28;20893;-78
2022/05/22 03:20:49;;;;;;;2.37;2.23;;;10.30;99.90;;;;;;5032246;28;20661;-78
2022/05/22 03:23:16;;;;;;;3.57;2.30;;;10.30;99.90;;;;;;5031831;28;20190;-77
2022/05/22 03:25:43;;;;;;;5.60;2.87;;;10.30;99.90;;;;;;5016024;28;20251;-78
2022/05/22 03:28:09;;;;;;;4.07;2.80;;;10.20;99.90;;;;;;5018255;28;20543;-78
2022/05/22 03:30:34;;;;;;;3.57;2.43;;;10.30;99.90;;;;;;5034417;28;21043;-77
2022/05/22 03:33:00;;;;;;;5.47;2.73;;;10.20;99.90;;;;;;5031580;28;20191;-78
2022/05/22 03:35:25;;;;;;;2.70;1.97;;;10.20;99.90;;;;;;5028249;28;20652;-78
2022/05/22 03:37:51;;;;;;;7.23;2.73;;;10.20;99.90;;;;;;5034657;28;20174;-78
2022/05/22 03:40:16;;;;;;;4.00;2.60;;;10.20;99.90;;;;;;5033532;28;20192;-78
2022/05/22 03:42:42;;;;;;;2.57;2.37;;;10.10;99.90;;;;;;5034058;28;20201;-78
2022/05/22 03:45:09;;;;;;;5.30;2.37;;;10.10;99.90;;;;;;5031023;28;20189;-78
2022/05/22 03:47:34;;;;;;;7.93;2.10;;;10.10;99.90;;;;;;5034283;28;20188;-78
2022/05/22 03:50:04;;;;;;;4.13;2.93;;;10.10;99.90;;;;;;5031898;28;20829;-78
2022/05/22 03:52:32;;;;;;;2.70;2.27;;;10.20;99.90;;;;;;5014608;28;20281;-78
2022/05/22 03:54:58;;;;;;;6.23;2.97;;;10.10;99.90;;;;;;5015212;28;20415;-78
2022/05/22 03:57:23;;;;;;;3.53;3.10;;;10.20;99.90;;;;;;5025776;28;20929;-78
2022/05/22 03:59:49;;;;;;;3.10;2.77;;;10.20;99.90;;;;;;5034828;28;20710;-78
2022/05/22 04:02:14;;;;;;;4.60;2.70;;;10.20;99.90;;;;;;5031826;28;20718;-79
2022/05/22 04:04:40;;;;;;;3.03;2.80;;;10.30;99.90;;;;;;5032461;28;20180;-78
2022/05/22 04:07:06;;;;;;;4.10;2.77;;;10.30;99.90;;;;;;5031017;28;20196;-78
2022/05/22 04:09:31;;;;;;;6.30;2.43;;;10.30;99.90;;;;;;5034633;28;20197;-78
2022/05/22 04:11:57;;;;;;;3.03;2.77;;;10.40;99.90;;;;;;5031287;28;20217;-78
2022/05/22 04:14:24;;;;;;;2.93;2.73;;;10.40;99.90;;;;;;5030856;28;20242;-78
2022/05/22 04:16:50;;;;;;;3.27;2.97;;;10.40;99.90;;;;;;5033062;28;20431;-79
2022/05/22 04:19:16;;;;;;;3.53;2.20;;;10.40;99.90;;;;;;5034998;28;20527;-78
2022/05/22 04:21:42;;;;;;;3.63;2.30;;;10.50;99.90;;;;;;5034114;28;20584;-78
2022/05/22 04:26:52;;;;;;;4.93;2.60;;;10.70;99.90;;;;;;5036760;28;20712;-78
2022/05/22 04:29:18;;;;;;;2.47;2.27;;;10.90;99.90;;;;;;5029383;28;20440;-78
2022/05/22 04:31:44;;;;;;;3.37;2.53;;;11.00;99.90;;;;;;5031925;28;20455;-78
2022/05/22 04:34:09;;;;;;;4.40;2.80;;;11.10;99.90;;;;;;5029958;28;20220;-78
2022/05/22 04:36:35;;;;;;;2.80;2.60;;;11.20;99.90;;;;;;5016442;28;20274;-78
2022/05/22 04:39:00;;;;;;;3.07;2.87;;;11.30;99.90;;;;;;5012440;28;20183;-78
2022/05/22 04:41:28;;;;;;;3.70;3.40;;;11.40;99.90;;;;;;5026590;28;20652;-78
2022/05/22 04:43:53;;;;;;;3.97;3.27;;;11.50;99.90;;;;;;5030082;28;20166;-78
2022/05/22 04:46:19;;;;;;;3.43;2.93;;;11.60;99.90;;;;;;5030225;28;20419;-78
2022/05/22 04:48:44;;;;;;;4.10;2.83;;;11.80;99.90;;;;;;5032324;28;20232;-78
2022/05/22 04:51:10;;;;;;;3.37;2.87;;;11.90;99.90;;;;;;5024155;28;20209;-78
2022/05/22 04:53:36;;;;;;;3.57;3.07;;;12.00;99.90;;;;;;5032386;28;20546;-78
2022/05/22 04:56:02;;;;;;;3.40;3.10;;;12.20;99.90;;;;;;5030247;28;20185;-78
2022/05/22 04:58:27;;;;;;;3.20;2.97;;;12.30;99.90;;;;;;5032918;28;20650;-78
2022/05/22 05:00:53;;;;;;;5.43;3.80;;;12.40;99.90;;;;;;5030317;28;20217;-77
2022/05/22 05:03:19;;;;;;;10.03;4.20;;;12.60;99.90;;;;;;5029843;28;20194;-78
2022/05/22 05:05:53;;;;;;;3.13;2.93;;;12.90;99.90;;;;;;5030667;28;20857;-78
2022/05/22 05:08:18;;;;;;;3.20;3.00;;;13.70;99.90;;;;;;5032037;28;20189;-78
2022/05/22 05:10:44;;;;;;;5.37;3.27;;;15.40;99.90;;;;;;5032220;28;20568;-78
2022/05/22 05:13:10;;;;;;;4.60;3.20;;;17.40;99.90;;;;;;5027058;28;20190;-76
2022/05/22 05:15:35;;;;;;;3.50;3.20;;;19.60;99.90;;;;;;5031192;28;20409;-77
2022/05/22 05:18:01;;;;;;;11.70;3.10;;;21.20;99.90;;;;;;5022339;28;20613;-76
2022/05/22 05:20:27;;;;;;;3.03;2.73;;;22.50;99.90;;;;;;5017168;28;20755;-76
2022/05/22 05:22:53;;;;;;;3.23;2.93;;;23.20;99.90;;;;;;5022443;28;20206;-77
2022/05/22 05:25:19;;;;;;;5.63;2.70;;;23.90;99.90;;;;;;5025688;28;20425;-77
2022/05/22 05:27:45;;;;;;;7.57;3.07;;;24.10;99.90;;;;;;5030030;28;20170;-77
2022/05/22 05:30:12;;;;;;;2.80;2.60;;;24.60;99.90;;;;;;5030446;28;20820;-77
2022/05/22 05:32:37;;;;;;;2.87;2.67;;;24.60;99.90;;;;;;5031190;28;20819;-77
2022/05/22 05:35:07;;;;;;;2.93;2.40;;;24.70;99.90;;;;;;5025981;28;20444;-74
2022/05/22 05:37:34;;;;;;;2.53;2.33;;;24.60;99.90;;;;;;5031304;28;20498;-74
2022/05/22 05:40:00;;;;;;;3.63;2.87;;;24.80;99.90;;;;;;5028395;28;20502;-75
2022/05/22 05:42:34;;;;;;;2.17;2.00;;;25.20;99.90;;;;;;5030555;28;20983;-74
2022/05/22 05:45:00;;;;;;;2.60;2.40;;;25.50;99.90;;;;;;5029375;28;21190;-74
2022/05/22 05:47:26;;;;;;;9.63;2.83;;;25.30;99.90;;;;;;5030343;28;20436;-74
2022/05/22 05:49:52;;;;;;;5.53;2.30;;;24.80;99.90;;;;;;5028669;28;20817;-74
2022/05/22 05:52:17;;;;;;;7.40;2.57;;;24.20;99.90;;;;;;5030236;28;20464;-71
2022/05/22 05:54:43;;;;;;;2.67;2.47;;;23.70;99.90;;;;;;5031195;28;20265;-71
2022/05/22 05:57:15;;;;;;;3.83;2.67;;;22.90;99.90;;;;;;5026816;28;20620;-71
2022/05/22 05:59:41;;;;;;;2.80;2.60;;;22.40;99.90;;;;;;5030622;28;20250;-71
2022/05/22 06:02:14;;;;;;;3.37;2.43;;;21.90;99.90;;;;;;5028154;28;20468;-71
2022/05/22 06:04:39;;;;;;;3.00;2.50;;;21.40;99.90;;;;;;5030346;28;20925;-75
2022/05/22 06:07:05;;;;;;;3.20;2.90;;;21.50;99.90;;;;;;5023194;28;20453;-75
2022/05/22 06:09:31;;;;;;;2.43;2.23;;;21.40;99.90;;;;;;5030899;28;20210;-75
2022/05/22 06:11:57;;;;;;;4.10;3.43;;;21.30;99.90;;;;;;5028960;28;20876;-74
2022/05/22 06:14:23;;;;;;;2.70;2.50;;;21.80;99.90;;;;;;5028934;28;20590;-76
2022/05/22 06:16:50;;;;;;;4.00;2.40;;;21.90;99.90;;;;;;5030642;28;20560;-75
2022/05/22 06:19:53;;;;;;;2.53;2.33;;;22.00;99.90;;;;;;5029013;28;20271;-75
2022/05/22 06:22:01;;;;;;;4.00;2.53;;;22.10;99.90;;;;;;5029848;28;20445;-75
2022/05/22 06:24:27;;;;;;;2.40;2.20;;;22.10;99.90;;;;;;5029582;28;20594;-75
2022/05/22 06:26:52;;;;;;;6.63;4.73;;;22.30;99.90;;;;;;5030946;28;20186;-76
2022/05/22 06:29:18;;;;;;;4.13;2.80;;;22.40;99.90;;;;;;5029222;28;20183;-75
2022/05/22 06:31:44;;;;;;;5.10;2.80;;;22.50;99.90;;;;;;5024807;28;20236;-75
2022/05/22 06:34:10;;;;;;;3.53;1.90;;;22.60;99.90;;;;;;5030765;28;20248;-76
2022/05/22 06:36:35;;;;;;;2.67;2.20;;;22.70;99.90;;;;;;5032930;28;20945;-76
2022/05/22 06:41:45;;;;;;;4.53;1.60;;;23.00;99.90;;;;;;5027851;28;20276;-76
2022/05/22 06:44:10;;;;;;;1.50;1.40;;;23.50;99.90;;;;;;5014901;28;20405;-76
2022/05/22 06:46:36;;;;;;;2.50;1.30;;;23.40;99.90;;;;;;5028128;28;20232;-76
2022/05/22 06:49:02;;;;;;;3.27;1.40;;;23.50;99.90;;;;;;5034179;28;20226;-76
2022/05/22 06:51:28;;;;;;;4.00;1.40;;;23.40;99.90;;;;;;5022010;28;20672;-77
2022/05/22 06:53:54;;;;;;;2.73;1.43;;;23.00;99.90;;;;;;5014783;28;20405;-77
2022/05/22 06:56:20;;;;;;;5.13;2.20;;;22.70;99.90;;;;;;5019570;28;20182;-76
2022/05/22 06:58:45;;;;;;;2.00;1.80;;;22.90;99.90;;;;;;5032928;28;20486;-77
2022/05/22 07:01:15;;;;;;;1.97;1.50;;;23.10;99.90;;;;;;5033746;28;20202;-77
2022/05/22 07:03:40;;;;;;;1.33;1.20;;;23.20;99.90;;;;;;5032528;28;20189;-80
2022/05/22 07:06:06;;;;;;;3.33;1.57;;;23.40;99.90;;;;;;5031183;28;20421;-77
2022/05/22 07:08:31;;;;;;;7.50;1.40;;;23.90;99.90;;;;;;5032237;28;20555;-77
2022/05/22 07:13:41;;;;;;;10.13;1.90;;;24.40;99.90;;;;;;5024323;28;20685;-76
2022/05/22 07:16:06;;;;;;;3.43;1.50;;;24.50;99.90;;;;;;5032563;28;20417;-76
2022/05/22 07:18:32;;;;;;;4.90;1.57;;;24.70;99.90;;;;;;5034219;28;20197;-76
2022/05/22 07:20:57;;;;;;;2.47;1.13;;;24.40;99.90;;;;;;5032418;28;20202;-76
2022/05/22 07:23:23;;;;;;;3.43;1.77;;;24.90;99.90;;;;;;5033985;28;20205;-76
2022/05/22 07:25:50;;;;;;;3.43;1.53;;;25.00;99.90;;;;;;5030955;28;20239;-76
2022/05/22 07:28:15;;;;;;;2.00;1.53;;;24.70;99.90;;;;;;5032889;28;20213;-76
2022/05/22 07:30:41;;;;;;;2.00;1.37;;;24.20;99.90;;;;;;5031501;28;20496;-77
2022/05/22 07:33:06;;;;;;;1.93;1.37;;;24.10;99.90;;;;;;5033816;28;20182;-76
2022/05/22 07:35:32;;;;;;;1.10;1.10;;;24.10;99.90;;;;;;5028668;28;20190;-76
2022/05/22 07:37:59;;;;;;;5.87;1.80;;;24.60;99.90;;;;;;5021011;28;20662;-77
2022/05/22 07:40:24;;;;;;;1.53;1.40;;;25.10;99.90;;;;;;5021461;28;20926;-74
2022/05/22 07:42:50;;;;;;;4.43;1.57;;;24.90;99.90;;;;;;5023474;28;20459;-76
2022/05/22 07:45:16;;;;;;;2.70;1.20;;;25.30;99.90;;;;;;5020301;28;20262;-77
2022/05/22 07:47:42;;;;;;;2.63;1.37;;;25.70;99.90;;;;;;5022127;28;20520;-76
2022/05/22 07:50:18;;;;;;;1.67;1.43;;;25.80;99.90;;;;;;5017689;28;20244;-77
2022/05/22 07:52:44;;;;;;;2.63;1.60;;;26.10;99.90;;;;;;5028919;28;20548;-78
2022/05/22 07:55:14;;;;;;;3.43;1.70;;;25.70;99.90;;;;;;5033104;28;20451;-77
2022/05/22 07:57:41;;;;;;;2.10;1.93;;;25.60;99.90;;;;;;5032560;28;20413;-77
2022/05/22 08:00:11;;;;;;;3.70;1.20;;;25.80;99.90;;;;;;5023647;28;20532;-77
2022/05/22 08:02:37;;;;;;;1.50;1.40;;;25.60;99.90;;;;;;5033219;28;20491;-76
2022/05/22 08:05:04;;;;;;;3.20;1.63;;;25.70;99.90;;;;;;5023885;28;20433;-76
2022/05/22 08:07:30;;;;;;;6.13;1.70;;;26.00;99.90;;;;;;5013952;28;20170;-77
2022/05/22 08:09:56;;;;;;;2.10;2.00;;;26.10;99.90;;;;;;5022079;28;20468;-77
2022/05/22 08:12:21;;;;;;;1.97;1.27;;;26.10;99.90;;;;;;5023543;28;20551;-76
2022/05/22 08:14:48;;;;;;;3.43;1.70;;;26.60;99.90;;;;;;5029147;28;20210;-78
2022/05/22 08:17:15;;;;;;;3.57;2.30;;;27.00;99.90;;;;;;5029805;28;20641;-77
2022/05/22 08:19:41;;;;;;;2.30;2.00;;;26.80;99.90;;;;;;5032838;28;20509;-77
2022/05/22 08:22:07;;;;;;;2.40;1.57;;;26.60;99.90;;;;;;5027377;28;20942;-76
2022/05/22 08:24:32;;;;;;;1.60;1.30;;;26.80;99.90;;;;;;5033160;28;20455;-77
2022/05/22 08:26:58;;;;;;;3.13;1.37;;;27.00;99.90;;;;;;5030282;28;20646;-77
2022/05/22 08:29:23;;;;;;;3.17;1.57;;;26.70;99.90;;;;;;5033364;28;20631;-77
2022/05/22 08:31:49;;;;;;;2.20;1.10;;;26.70;99.90;;;;;;5031548;28;20217;-77
2022/05/22 08:34:14;;;;;;;2.00;1.33;;;26.50;99.90;;;;;;5030010;28;20190;-77
2022/05/22 08:36:41;;;;;;;3.50;1.53;;;26.40;99.90;;;;;;5025437;28;20666;-77
2022/05/22 08:39:07;;;;;;;2.13;1.50;;;26.70;99.90;;;;;;5030172;28;20182;-77
2022/05/22 08:41:40;;;;;;;1.67;1.43;;;26.50;99.90;;;;;;5032696;28;20510;-77
2022/05/22 08:44:11;;;;;;;1.73;1.60;;;26.70;99.90;;;;;;5030384;28;20260;-76
2022/05/22 08:46:58;;;;;;;1.73;1.00;;;27.10;99.90;;;;;;5031162;28;20516;-78
2022/05/22 08:49:48;;;;;;;3.17;1.03;;;28.00;99.90;;;;;;5026739;28;20441;-78
2022/05/22 08:52:29;;;;;;;2.80;1.30;;;28.80;99.90;;;;;;5027644;28;20441;-79
2022/05/22 08:55:02;;;;;;;1.57;1.33;;;29.00;99.90;;;;;;5030649;28;20421;-78
2022/05/22 09:00:29;;;;;;;2.80;1.50;;;29.20;99.90;;;;;;5029970;28;20439;-78
2022/05/22 09:03:24;;;;;;;1.60;1.50;;;29.80;99.40;;;;;;5032321;28;20944;-78
2022/05/22 09:05:55;;;;;;;3.93;1.40;;;30.10;99.70;;;;;;5028987;28;20816;-78
2022/05/22 09:08:31;;;;;;;2.33;1.53;;;29.90;98.30;;;;;;5031606;28;20435;-78
2022/05/22 09:11:25;;;;;;;1.63;1.53;;;29.70;96.90;;;;;;5026587;28;20473;-79
2022/05/22 09:14:17;;;;;;;2.23;1.20;;;29.20;97.60;;;;;;5025314;28;20933;-78
2022/05/22 09:16:57;;;;;;;5.13;1.40;;;29.40;96.90;;;;;;5029399;28;20867;-79
2022/05/22 09:19:30;;;;;;;2.00;1.23;;;29.60;97.10;;;;;;5031090;28;20511;-79
2022/05/22 09:22:16;;;;;;;3.20;1.50;;;29.00;96.80;;;;;;5028123;28;20778;-78
2022/05/22 09:25:07;;;;;;;2.50;1.70;;;28.30;97.10;;;;;;5030533;28;20516;-78
2022/05/22 09:27:43;;;;;;;2.63;1.60;;;28.40;96.60;;;;;;5026344;28;20440;-78
2022/05/22 09:30:16;;;;;;;2.63;1.33;;;28.60;98.40;;;;;;5030545;28;20510;-78
2022/05/22 09:32:51;;;;;;;2.23;1.33;;;28.30;97.20;;;;;;5029373;28;20543;-79
2022/05/22 09:35:20;;;;;;;2.97;1.47;;;28.80;97.00;;;;;;5030607;28;20436;-77
2022/05/22 09:37:55;;;;;;;1.60;1.50;;;29.10;97.40;;;;;;5032970;28;20936;-79
2022/05/22 09:40:45;;;;;;;3.10;1.37;;;29.10;97.10;;;;;;5030981;28;20440;-78
2022/05/22 09:43:47;;;;;;;1.67;1.53;;;29.00;95.60;;;;;;5029840;28;20466;-78
2022/05/22 09:46:12;;;;;;;2.77;1.00;;;29.40;96.30;;;;;;5019023;28;20519;-78
2022/05/22 09:49:06;;;;;;;3.10;1.20;;;29.20;95.30;;;;;;5021382;28;20425;-78
2022/05/22 09:51:50;;;;;;;3.27;1.40;;;28.70;95.80;;;;;;5018996;28;20297;-76
2022/05/22 09:55:00;;;;;;;1.60;1.00;;;29.00;96.90;;;;;;5011037;28;20410;-78
2022/05/22 09:57:51;;;;;;;2.20;1.10;;;29.90;95.80;;;;;;4950763;29;20511;-78
2022/05/22 10:00:31;;;;;;;2.67;1.70;;;30.50;95.60;;;;;;5011952;28;20504;-79
2022/05/22 10:03:15;;;;;;;2.57;1.40;;;30.70;94.30;;;;;;5031648;28;20506;-79
2022/05/22 10:06:00;;;;;;;3.17;1.47;;;30.70;95.40;;;;;;5033983;28;20428;-78
2022/05/22 10:08:37;;;;;;;2.40;1.17;;;30.40;95.20;;;;;;5036183;28;20427;-78
2022/05/22 10:11:05;;;;;;;2.30;1.30;;;30.20;95.20;;;;;;5033173;28;20483;-78
2022/05/22 10:13:43;;;;;;;0.97;0.97;;;30.50;95.70;;;;;;5029039;28;20921;-78
2022/05/22 10:16:45;;;;;;;3.27;1.60;;;30.60;95.30;;;;;;5035172;28;20409;-77
2022/05/22 10:19:24;;;;;;;4.73;1.23;;;30.90;94.80;;;;;;5015434;28;20821;-77
2022/05/22 10:22:08;;;;;;;1.30;1.20;;;31.20;93.80;;;;;;5024898;28;20942;-77
2022/05/22 10:24:50;;;;;;;1.37;1.27;;;30.90;93.50;;;;;;5035358;28;20483;-77
2022/05/22 10:27:43;;;;;;;1.57;1.23;;;31.00;92.00;;;;;;5033207;28;20798;-77
2022/05/22 10:30:19;;;;;;;1.20;1.10;;;31.00;91.90;;;;;;5014961;28;20976;-77
2022/05/22 10:32:59;;;;;;;1.30;1.20;;;30.90;92.50;;;;;;5016644;28;20477;-77
2022/05/22 10:35:30;;;;;;;1.93;1.27;;;31.30;92.20;;;;;;5028282;28;20467;-77
2022/05/22 10:38:07;;;;;;;1.30;1.20;;;31.00;90.80;;;;;;5013953;28;20433;-76
2022/05/22 10:43:17;;;;;;;1.47;1.23;;;30.70;91.60;;;;;;5032564;28;20474;-77
2022/05/22 10:45:43;;;;;;;1.90;1.30;;;30.60;92.80;;;;;;5033001;28;20515;-77
2022/05/22 10:48:17;;;;;;;3.10;1.50;;;30.70;92.80;;;;;;5034404;28;20178;-77
2022/05/22 10:51:06;;;;;;;4.83;1.40;;;30.60;92.50;;;;;;5026969;28;20221;-77
2022/05/22 10:53:50;;;;;;;3.10;1.00;;;31.20;92.80;;;;;;5034585;28;20417;-77
2022/05/22 10:56:18;;;;;;;2.00;1.33;;;30.90;92.10;;;;;;5030133;28;20996;-78
2022/05/22 10:58:51;;;;;;;1.10;1.00;;;30.80;90.80;;;;;;5034410;28;20398;-78
2022/05/22 11:01:20;;;;;;;1.10;1.00;;;30.60;91.40;;;;;;5031652;28;20966;-78
2022/05/22 11:03:47;;;;;;;3.53;1.10;;;29.90;91.20;;;;;;5034446;28;20408;-78
2022/05/22 11:06:20;;;;;;;3.13;1.40;;;29.90;92.10;;;;;;5030636;28;20820;-78
2022/05/22 11:08:54;;;;;;;2.10;1.37;;;29.70;91.10;;;;;;5013298;28;20434;-78
2022/05/22 11:11:26;;;;;;;3.03;1.40;;;29.80;91.30;;;;;;5016123;28;20515;-77
2022/05/22 11:13:53;;;;;;;3.47;1.27;;;29.70;90.80;;;;;;5026760;28;20953;-78
2022/05/22 11:16:25;;;;;;;1.53;1.43;;;29.70;92.60;;;;;;5031834;28;20515;-78
2022/05/22 11:19:12;;;;;;;3.53;1.50;;;29.50;91.10;;;;;;5031918;28;20428;-78
2022/05/22 11:21:55;;;;;;;2.33;1.67;;;29.40;91.60;;;;;;5029498;28;20551;-78
2022/05/22 11:24:48;;;;;;;1.50;1.23;;;28.90;90.10;;;;;;5033874;28;20412;-78
2022/05/22 11:27:45;;;;;;;1.47;1.37;;;28.20;91.70;;;;;;5031566;28;20444;-77
2022/05/22 11:30:30;;;;;;;1.43;1.20;;;28.00;92.30;;;;;;5014482;28;20511;-78
2022/05/22 11:33:01;;;;;;;2.53;1.90;;;27.90;92.50;;;;;;5020549;28;20496;-78
2022/05/22 11:35:48;;;;;;;1.20;1.10;;;28.10;91.90;;;;;;5030505;28;20532;-77
2022/05/22 11:38:34;;;;;;;2.67;1.47;;;27.90;91.20;;;;;;5031535;28;20432;-78
2022/05/22 11:41:19;;;;;;;1.80;1.70;;;28.00;93.50;;;;;;5012410;28;21074;-78
2022/05/22 11:44:07;;;;;;;1.33;1.23;;;28.50;93.50;;;;;;5021270;28;20478;-78
2022/05/22 11:46:50;;;;;;;2.67;1.50;;;28.40;92.50;;;;;;5033582;28;20841;-77
2022/05/22 11:49:29;;;;;;;2.30;1.10;;;28.10;92.80;;;;;;5029911;28;20439;-77
2022/05/22 11:55:40;;;;;;;6.27;1.70;;;27.90;92.80;;;;;;5031921;28;20472;-78
2022/05/22 11:58:20;;;;;;;2.30;1.20;;;27.50;94.80;;;;;;5033382;28;20401;-78
2022/05/22 12:01:00;;;;;;;2.73;2.07;;;27.40;94.50;;;;;;5028738;28;20432;-77
2022/05/22 12:03:57;;;;;;;4.60;1.33;;;27.60;95.80;;;;;;5032957;28;20413;-78
2022/05/22 12:07:05;;;;;;;2.53;2.07;;;27.30;94.00;;;;;;5028798;28;20442;-77
2022/05/22 12:09:50;;;;;;;1.20;1.10;;;27.40;94.70;;;;;;5001616;28;20784;-79
2022/05/22 12:12:40;;;;;;;1.60;1.23;;;26.80;95.10;;;;;;5021027;28;20480;-79
2022/05/22 12:15:43;;;;;;;1.37;1.27;;;27.00;95.20;;;;;;5021705;28;20436;-76
2022/05/22 12:18:43;;;;;;;2.30;1.20;;;27.20;96.50;;;;;;5020199;28;20413;-76
2022/05/22 12:21:40;;;;;;;1.43;1.17;;;27.30;96.40;;;;;;5020367;28;20481;-75
2022/05/22 12:24:30;;;;;;;2.13;1.33;;;27.60;95.80;;;;;;5019538;28;20824;-76
2022/05/22 12:26:56;;;;;;;4.40;1.30;;;27.70;95.30;;;;;;5019471;28;20980;-76
2022/05/22 12:29:25;;;;;;;1.50;1.40;;;27.70;94.70;;;;;;5019462;28;20522;-76
2022/05/22 12:31:56;;;;;;;1.03;0.93;;;27.60;93.80;;;;;;5019720;28;20452;-76
2022/05/22 12:34:36;;;;;;;5.83;1.87;;;27.40;92.70;;;;;;5019146;28;20493;-76
2022/05/22 12:37:04;;;;;;;3.00;1.50;;;27.10;93.90;;;;;;5021274;28;20456;-76
2022/05/22 12:39:40;;;;;;;1.27;1.17;;;27.10;94.40;;;;;;5019259;28;20584;-75
2022/05/22 12:42:15;;;;;;;1.60;1.33;;;27.10;94.00;;;;;;5018969;28;20437;-76
2022/05/22 12:44:40;;;;;;;1.43;1.27;;;27.00;93.50;;;;;;5019878;28;20449;-75
2022/05/22 12:47:15;;;;;;;2.00;1.80;;;27.00;93.20;;;;;;5020052;28;20428;-75
2022/05/22 12:49:52;;;;;;;1.87;1.10;;;26.80;93.30;;;;;;5019481;28;20209;-75
2022/05/22 12:52:32;;;;;;;1.40;1.20;;;26.60;93.70;;;;;;5018679;28;20448;-75
2022/05/22 12:55:18;;;;;;;2.20;1.40;;;26.70;94.90;;;;;;5019479;28;20450;-75
2022/05/22 12:57:59;;;;;;;2.40;1.20;;;26.50;93.50;;;;;;5019616;28;20862;-75
2022/05/22 13:00:31;;;;;;;5.53;1.30;;;26.60;93.80;;;;;;5018679;28;20957;-75
2022/05/22 13:03:13;;;;;;;1.20;1.03;;;26.60;94.00;;;;;;5019363;28;20483;-76
2022/05/22 13:05:40;;;;;;;1.77;1.17;;;26.70;92.70;;;;;;5019480;28;21002;-76
2022/05/22 13:08:35;;;;;;;1.57;0.93;;;26.80;94.00;;;;;;5020277;28;20840;-75
2022/05/22 13:11:09;;;;;;;1.43;1.10;;;26.60;93.00;;;;;;5018397;28;21040;-76
2022/05/22 13:13:50;;;;;;;1.50;1.40;;;26.40;92.50;;;;;;5020899;28;20982;-77
2022/05/22 13:16:29;;;;;;;1.53;0.90;;;26.30;92.90;;;;;;5018945;28;20456;-76
2022/05/22 13:18:56;;;;;;;1.23;1.13;;;26.40;92.30;;;;;;5019443;28;20448;-76
2022/05/22 13:21:40;;;;;;;1.43;1.17;;;26.50;92.80;;;;;;5018672;28;20449;-75
2022/05/22 13:24:21;;;;;;;2.40;1.00;;;26.60;92.20;;;;;;5018289;28;20453;-75
2022/05/22 13:27:24;;;;;;;6.30;1.10;;;26.50;92.40;;;;;;5018839;28;20448;-77
2022/05/22 13:30:00;;;;;;;1.90;1.23;;;26.60;92.80;;;;;;5007373;28;20480;-77
2022/05/22 13:32:43;;;;;;;1.53;1.10;;;26.70;91.90;;;;;;5018635;28;20448;-77
2022/05/22 13:35:17;;;;;;;1.00;1.00;;;26.60;92.20;;;;;;5018608;28;20548;-77
2022/05/22 13:37:48;;;;;;;1.33;0.80;;;26.70;91.90;;;;;;5018611;28;20444;-75
2022/05/22 13:40:30;;;;;;;4.37;1.67;;;26.70;92.30;;;;;;5018352;28;20488;-76
2022/05/22 13:43:34;;;;;;;2.20;1.10;;;26.40;92.00;;;;;;5018856;28;21069;-76
2022/05/22 13:46:24;;;;;;;1.40;1.30;;;26.40;91.90;;;;;;5018507;28;20460;-77
2022/05/22 13:48:55;;;;;;;1.53;0.83;;;26.20;91.90;;;;;;5017509;28;21094;-75
2022/05/22 13:54:49;;;;;;;1.47;0.80;;;26.10;92.00;;;;;;5019208;28;20475;-74
2022/05/22 13:57:23;;;;;;;2.83;1.10;;;26.00;91.30;;;;;;5018204;28;20420;-74
2022/05/22 14:00:04;;;;;;;1.07;0.80;;;26.10;91.40;;;;;;5019164;28;20462;-74
2022/05/22 14:02:43;;;;;;;2.83;1.20;;;26.20;91.70;;;;;;5018237;28;20436;-73
2022/05/22 14:05:10;;;;;;;1.97;0.90;;;26.30;92.00;;;;;;5019838;28;20816;-74
2022/05/22 14:07:50;;;;;;;1.70;1.00;;;26.30;92.40;;;;;;5020513;28;20488;-75
2022/05/22 14:10:26;;;;;;;3.13;1.30;;;25.90;91.10;;;;;;5020072;28;20467;-76
2022/05/22 14:12:52;;;;;;;3.17;1.10;;;25.90;91.00;;;;;;5019117;28;20466;-74
2022/05/22 14:15:23;;;;;;;2.80;1.00;;;25.90;91.40;;;;;;5018291;28;20438;-76
2022/05/22 14:17:48;;;;;;;1.00;0.80;;;26.00;91.30;;;;;;5019365;28;20673;-76
2022/05/22 14:20:19;;;;;;;2.10;1.00;;;26.20;90.90;;;;;;5016096;28;20425;-76
2022/05/22 14:23:06;;;;;;;2.30;1.10;;;26.30;90.40;;;;;;5019210;28;20289;-73
2022/05/22 14:25:33;;;;;;;1.33;0.90;;;26.20;90.90;;;;;;5019446;28;20440;-75
2022/05/22 14:27:59;;;;;;;6.73;1.23;;;26.00;91.20;;;;;;5019125;28;21200;-74
2022/05/22 14:30:31;;;;;;;1.80;0.90;;;26.00;91.10;;;;;;5017852;28;20456;-72
2022/05/22 14:33:08;;;;;;;1.93;1.10;;;25.90;92.30;;;;;;5017649;28;20686;-73
2022/05/22 14:35:38;;;;;;;2.80;1.13;;;26.00;92.30;;;;;;5019286;28;20428;-75
2022/05/22 14:38:13;;;;;;;1.47;0.90;;;26.20;91.40;;;;;;5017022;28;21761;-75
2022/05/22 14:40:49;;;;;;;1.33;1.17;;;26.20;91.00;;;;;;5018417;28;20940;-73
2022/05/22 14:43:18;;;;;;;0.90;0.90;;;26.10;90.90;;;;;;5017707;28;20929;-76
2022/05/22 14:45:49;;;;;;;1.73;1.03;;;26.20;91.90;;;;;;5017908;28;20452;-75
2022/05/22 14:48:21;;;;;;;1.50;0.90;;;26.20;92.70;;;;;;5018219;28;20424;-75
2022/05/22 14:50:52;;;;;;;1.20;1.03;;;26.30;91.50;;;;;;5023179;28;20480;-73
2022/05/22 14:53:32;;;;;;;1.60;0.90;;;26.30;90.80;;;;;;5022243;28;20564;-75
2022/05/22 14:56:20;;;;;;;4.53;1.60;;;26.20;91.70;;;;;;5021891;28;20437;-73
2022/05/22 14:59:03;;;;;;;1.17;0.93;;;26.20;91.90;;;;;;5022194;28;20445;-74
2022/05/22 15:01:40;;;;;;;1.17;1.10;;;26.00;91.70;;;;;;5021488;28;20468;-74
2022/05/22 15:04:11;;;;;;;2.57;1.30;;;26.00;91.50;;;;;;5027493;28;20963;-75
2022/05/22 15:07:00;;;;;;;2.60;1.00;;;25.90;92.90;;;;;;5027445;28;20866;-75